Time;durP1;ratioP1;P1;durP2;ratioP2;P2;SDS_P1;SDS_P2;PMS_P1;PMS_P2;Temp;Humidity;BMP_temperature;BMP_pressure;BME280_temperature;BME280_humidity;BME280_pressure;Samples;Min_cycle;Max_cycle;Signal;HPM_P1;HPM_P2
2023/04/14 00:01:30;;;;;;;0.00;0.00;;;7.10;1.00;;;;;;5000415;28;20050;-85
2023/04/14 00:03:56;;;;;;;4.75;0.43;;;7.10;1.00;;;;;;5000320;28;20042;-85
2023/04/14 00:06:21;;;;;;;0.00;0.00;;;7.10;1.00;;;;;;5000499;28;20075;-85
2023/04/14 00:08:47;;;;;;;0.00;0.00;;;7.00;1.00;;;;;;5000484;28;20050;-85
2023/04/14 00:11:13;;;;;;;0.00;0.00;;;7.00;1.10;;;;;;5000902;28;20042;-86
2023/04/14 00:13:39;;;;;;;1.65;0.75;;;6.90;1.20;;;;;;5016331;28;20496;-85
2023/04/14 00:16:05;;;;;;;0.00;0.00;;;6.90;4.20;;;;;;5000644;28;20160;-85
2023/04/14 00:18:31;;;;;;;0.00;0.00;;;6.80;4.60;;;;;;4999918;28;20064;-85
2023/04/14 00:20:57;;;;;;;0.00;0.00;;;6.80;6.20;;;;;;4984617;28;20042;-85
2023/04/14 00:23:23;;;;;;;0.20;0.00;;;6.70;7.60;;;;;;4999889;28;20048;-85
2023/04/14 00:25:49;;;;;;;0.30;0.30;;;6.70;9.60;;;;;;4983664;28;20096;-85
2023/04/14 00:28:14;;;;;;;0.00;0.00;;;6.70;9.10;;;;;;5015807;28;20512;-85
2023/04/14 00:30:40;;;;;;;0.00;0.00;;;6.70;10.60;;;;;;4983612;28;20132;-85
2023/04/14 00:33:06;;;;;;;0.00;0.00;;;6.60;14.60;;;;;;4983059;28;20097;-85
2023/04/14 00:35:32;;;;;;;0.00;0.00;;;6.60;12.00;;;;;;4999677;28;20100;-85
2023/04/14 00:37:57;;;;;;;0.00;0.00;;;6.60;14.00;;;;;;4999692;28;20057;-85
2023/04/14 00:40:23;;;;;;;0.17;0.15;;;5.60;14.30;;;;;;4983746;28;20054;-85
2023/04/14 00:42:49;;;;;;;0.15;0.15;;;6.60;19.20;;;;;;4999615;28;20053;-86
2023/04/14 00:45:15;;;;;;;0.10;0.10;;;6.50;19.80;;;;;;4999557;28;20057;-85
2023/04/14 00:47:46;;;;;;;0.80;0.28;;;6.50;16.90;;;;;;5015778;28;20100;-85
2023/04/14 00:50:14;;;;;;;0.00;0.00;;;6.40;16.90;;;;;;4999737;28;20374;-85
2023/04/14 00:52:42;;;;;;;0.00;0.00;;;6.40;19.50;;;;;;5016550;28;20100;-85
2023/04/14 00:55:09;;;;;;;0.00;0.00;;;6.40;20.50;;;;;;4997982;28;20132;-86
2023/04/14 00:57:35;;;;;;;0.00;0.00;;;6.40;21.70;;;;;;4999519;28;20053;-85
2023/04/14 01:00:04;;;;;;;0.00;0.00;;;6.90;22.30;;;;;;4999107;28;20493;-85
2023/04/14 01:02:30;;;;;;;0.00;0.00;;;6.40;21.50;;;;;;4999176;28;20049;-85
2023/04/14 01:04:57;;;;;;;0.00;0.00;;;6.40;22.40;;;;;;5016421;28;20065;-85
2023/04/14 01:07:25;;;;;;;0.00;0.00;;;6.60;24.50;;;;;;4999181;28;20052;-85
2023/04/14 01:09:53;;;;;;;0.00;0.00;;;6.40;27.50;;;;;;5000126;28;20042;-85
2023/04/14 01:12:30;;;;;;;0.00;0.00;;;6.40;29.70;;;;;;4999834;28;20132;-85
2023/04/14 01:15:11;;;;;;;0.15;0.00;;;6.40;30.80;;;;;;4999644;28;20065;-85
2023/04/14 01:18:05;;;;;;;0.00;0.00;;;6.40;25.00;;;;;;4998897;28;20478;-85
2023/04/14 01:20:46;;;;;;;0.00;0.00;;;6.40;29.50;;;;;;5015267;28;20486;-85
2023/04/14 01:23:21;;;;;;;0.00;0.00;;;6.40;25.20;;;;;;5015453;28;20138;-85
2023/04/14 01:25:53;;;;;;;0.00;0.00;;;6.50;27.20;;;;;;4999179;28;20042;-85
2023/04/14 01:28:37;;;;;;;0.20;0.20;;;6.40;29.60;;;;;;5015032;28;20512;-85
2023/04/14 01:31:16;;;;;;;0.00;0.00;;;6.40;38.40;;;;;;4999004;28;20092;-85
2023/04/14 01:33:46;;;;;;;0.00;0.00;;;6.40;35.10;;;;;;4998312;28;20124;-85
2023/04/14 01:36:37;;;;;;;0.00;0.00;;;6.40;35.10;;;;;;5014957;28;20136;-85
2023/04/14 01:39:07;;;;;;;0.00;0.00;;;6.30;41.00;;;;;;5000417;28;20443;-86
2023/04/14 01:41:36;;;;;;;0.05;0.05;;;6.20;42.90;;;;;;4998521;28;20108;-86
2023/04/14 01:44:03;;;;;;;0.00;0.00;;;6.20;53.10;;;;;;5014789;28;20053;-85
2023/04/14 01:46:29;;;;;;;0.00;0.00;;;6.10;61.50;;;;;;5015023;28;20497;-85
2023/04/14 01:48:55;;;;;;;0.00;0.00;;;6.10;64.70;;;;;;4982565;28;20071;-85
2023/04/14 01:51:22;;;;;;;0.00;0.00;;;6.10;65.00;;;;;;4998286;28;20478;-85
2023/04/14 01:53:50;;;;;;;0.00;0.00;;;6.10;64.90;;;;;;4998468;28;20130;-86
2023/04/14 01:56:18;;;;;;;0.00;0.00;;;6.00;60.60;;;;;;5014479;28;20445;-85
2023/04/14 01:58:46;;;;;;;0.00;0.00;;;6.00;63.40;;;;;;4998719;28;20419;-85
2023/04/14 02:01:12;;;;;;;0.00;0.00;;;6.00;71.70;;;;;;5014492;28;20048;-86
2023/04/14 02:03:39;;;;;;;0.00;0.00;;;6.00;71.60;;;;;;4998074;28;20134;-86
2023/04/14 02:06:07;;;;;;;0.00;0.00;;;6.00;72.60;;;;;;5014178;28;20046;-85
2023/04/14 02:08:36;;;;;;;0.00;0.00;;;5.90;75.90;;;;;;4998262;28;20085;-86
2023/04/14 02:11:03;;;;;;;0.45;0.00;;;5.90;77.60;;;;;;4998233;28;20092;-86
2023/04/14 02:13:31;;;;;;;0.00;0.00;;;5.90;77.20;;;;;;4997522;28;20458;-86
2023/04/14 02:16:00;;;;;;;0.00;0.00;;;5.90;78.30;;;;;;4982250;28;20042;-86
2023/04/14 02:18:30;;;;;;;0.00;0.00;;;5.90;77.30;;;;;;4997812;28;20049;-86
2023/04/14 02:20:58;;;;;;;0.00;0.00;;;5.90;79.40;;;;;;4981826;28;20050;-86
2023/04/14 02:23:24;;;;;;;0.00;0.00;;;5.90;78.80;;;;;;4998021;28;20049;-86
2023/04/14 02:26:20;;;;;;;0.00;0.00;;;5.90;80.60;;;;;;5014049;28;20531;-86
2023/04/14 02:28:58;;;;;;;0.00;0.00;;;5.80;80.10;;;;;;5013192;28;20057;-86
2023/04/14 02:31:26;;;;;;;0.00;0.00;;;6.30;80.60;;;;;;4998396;28;20079;-85
2023/04/14 02:33:54;;;;;;;0.10;0.10;;;5.90;79.60;;;;;;4981481;28;20054;-86
2023/04/14 02:36:26;;;;;;;0.00;0.00;;;5.90;79.00;;;;;;5013817;28;20050;-85
2023/04/14 02:38:58;;;;;;;0.10;0.00;;;5.80;79.40;;;;;;5014118;28;20136;-86
2023/04/14 02:41:29;;;;;;;0.00;0.00;;;6.20;77.70;;;;;;4998286;28;20046;-86
2023/04/14 02:44:02;;;;;;;0.80;0.25;;;5.80;78.90;;;;;;5013683;28;20478;-86
2023/04/14 02:46:34;;;;;;;0.00;0.00;;;6.00;79.40;;;;;;4997280;28;20058;-86
2023/04/14 02:49:02;;;;;;;0.00;0.00;;;6.00;77.30;;;;;;4997232;28;20535;-86
2023/04/14 02:51:30;;;;;;;0.00;0.00;;;5.80;77.70;;;;;;4981905;28;20485;-85
2023/04/14 02:53:57;;;;;;;0.00;0.00;;;5.70;77.40;;;;;;4997060;28;20478;-85
2023/04/14 02:56:23;;;;;;;0.00;0.00;;;5.60;77.30;;;;;;4981281;28;20056;-86
2023/04/14 02:58:50;;;;;;;0.00;0.00;;;5.60;79.70;;;;;;4997137;28;20092;-85
2023/04/14 03:01:18;;;;;;;0.00;0.00;;;6.10;80.10;;;;;;4998085;28;20073;-85
2023/04/14 03:03:43;;;;;;;0.00;0.00;;;5.40;80.40;;;;;;4996745;28;20046;-86
2023/04/14 03:06:14;;;;;;;0.00;0.00;;;5.40;80.30;;;;;;4980821;28;20042;-86
2023/04/14 03:08:40;;;;;;;0.00;0.00;;;5.30;77.10;;;;;;5013965;28;20493;-86
2023/04/14 03:11:07;;;;;;;0.00;0.00;;;5.30;78.80;;;;;;4997137;28;20058;-86
2023/04/14 03:13:34;;;;;;;0.00;0.00;;;5.30;80.50;;;;;;4996880;28;20049;-86
2023/04/14 03:16:02;;;;;;;0.08;0.00;;;5.30;79.70;;;;;;4996948;28;20081;-85
2023/04/14 03:18:30;;;;;;;0.00;0.00;;;5.40;80.10;;;;;;4996146;28;20142;-86
2023/04/14 03:20:59;;;;;;;0.17;0.17;;;5.50;79.40;;;;;;4996735;28;20412;-86
2023/04/14 03:23:26;;;;;;;0.00;0.00;;;5.10;81.20;;;;;;4996921;28;20124;-86
2023/04/14 03:25:52;;;;;;;0.00;0.00;;;5.50;83.10;;;;;;4996778;28;20042;-86
2023/04/14 03:28:21;;;;;;;0.00;0.00;;;5.00;84.70;;;;;;4997438;28;20054;-86
2023/04/14 03:30:53;;;;;;;0.00;0.00;;;4.80;83.80;;;;;;4980957;28;20453;-86
2023/04/14 03:33:26;;;;;;;0.00;0.00;;;4.80;83.50;;;;;;4996380;28;20055;-86
2023/04/14 03:35:57;;;;;;;0.28;0.28;;;5.00;84.60;;;;;;5012983;28;20056;-86
2023/04/14 03:38:26;;;;;;;0.00;0.00;;;4.60;86.20;;;;;;5013252;28;20057;-86
2023/04/14 03:40:56;;;;;;;0.00;0.00;;;4.60;88.20;;;;;;4996850;28;20433;-86
2023/04/14 03:43:23;;;;;;;0.08;0.08;;;4.60;88.70;;;;;;4996823;28;20475;-86
2023/04/14 03:45:50;;;;;;;0.00;0.00;;;4.60;88.50;;;;;;5013671;28;20053;-86
2023/04/14 03:48:18;;;;;;;0.00;0.00;;;4.50;88.90;;;;;;4996739;28;20050;-86
2023/04/14 03:50:45;;;;;;;0.22;0.00;;;4.60;88.80;;;;;;5012904;28;20045;-86
2023/04/14 03:53:13;;;;;;;0.00;0.00;;;4.40;88.60;;;;;;4996359;28;20470;-86
2023/04/14 03:55:45;;;;;;;0.00;0.00;;;5.20;88.00;;;;;;4980778;28;20053;-86
2023/04/14 03:58:13;;;;;;;0.10;0.10;;;4.40;86.20;;;;;;4996366;28;20050;-86
2023/04/14 04:00:39;;;;;;;0.00;0.00;;;4.30;88.30;;;;;;4996597;28;20492;-86
2023/04/14 04:03:09;;;;;;;0.00;0.00;;;4.30;90.50;;;;;;5012757;28;20088;-86
2023/04/14 04:05:38;;;;;;;0.00;0.00;;;4.20;91.10;;;;;;4996155;28;20482;-86
2023/04/14 04:08:05;;;;;;;0.00;0.00;;;4.20;91.30;;;;;;4996411;28;20057;-86
2023/04/14 04:10:33;;;;;;;0.00;0.00;;;4.20;91.00;;;;;;5012654;28;20054;-86
2023/04/14 04:13:01;;;;;;;0.00;0.00;;;4.20;90.80;;;;;;5012869;28;20119;-86
2023/04/14 04:15:32;;;;;;;1.20;0.55;;;4.10;89.30;;;;;;4996183;28;20402;-86
2023/04/14 04:17:59;;;;;;;0.00;0.00;;;4.00;87.60;;;;;;4996266;28;20088;-86
2023/04/14 04:20:27;;;;;;;0.00;0.00;;;4.90;90.00;;;;;;4996090;28;20096;-86
2023/04/14 04:22:55;;;;;;;0.00;0.00;;;4.00;90.20;;;;;;4997196;28;20050;-86
2023/04/14 04:25:21;;;;;;;0.00;0.00;;;4.00;91.00;;;;;;5013313;28;20046;-85
2023/04/14 04:27:48;;;;;;;0.00;0.00;;;4.50;91.30;;;;;;4996145;28;20045;-86
2023/04/14 04:30:17;;;;;;;0.00;0.00;;;3.90;92.50;;;;;;4997922;28;20054;-85
2023/04/14 04:32:43;;;;;;;0.00;0.00;;;3.90;92.30;;;;;;4999511;28;20490;-85
2023/04/14 04:35:10;;;;;;;0.10;0.00;;;3.80;90.90;;;;;;4983625;28;20053;-86
2023/04/14 04:37:37;;;;;;;0.00;0.00;;;4.40;91.30;;;;;;5000013;28;20104;-86
2023/04/14 04:40:03;;;;;;;0.10;0.10;;;4.70;91.90;;;;;;4999965;28;20056;-86
2023/04/14 04:42:29;;;;;;;0.52;0.00;;;3.80;92.60;;;;;;4999702;28;20136;-86
2023/04/14 04:44:55;;;;;;;0.00;0.00;;;3.80;92.20;;;;;;4999624;28;20133;-86
2023/04/14 04:47:21;;;;;;;0.00;0.00;;;3.80;92.40;;;;;;4983466;28;20049;-86
2023/04/14 04:49:46;;;;;;;0.00;0.00;;;3.70;92.70;;;;;;4999199;28;20050;-86
2023/04/14 04:52:12;;;;;;;0.00;0.00;;;3.70;92.40;;;;;;5000270;28;20042;-86
2023/04/14 04:54:38;;;;;;;0.00;0.00;;;3.70;92.60;;;;;;5000025;28;20046;-86
2023/04/14 04:57:03;;;;;;;0.00;0.00;;;4.20;92.20;;;;;;4999303;28;20454;-86
2023/04/14 04:59:29;;;;;;;0.00;0.00;;;4.10;91.80;;;;;;4999112;28;20494;-85
2023/04/14 05:01:55;;;;;;;0.00;0.00;;;4.30;91.30;;;;;;4999265;28;20050;-86
2023/04/14 05:04:21;;;;;;;0.00;0.00;;;3.60;91.30;;;;;;4999328;28;20485;-85
2023/04/14 05:06:46;;;;;;;0.00;0.00;;;4.60;91.80;;;;;;4983748;28;20049;-86
2023/04/14 05:09:12;;;;;;;0.10;0.00;;;4.30;91.50;;;;;;4983171;28;20565;-86
2023/04/14 05:11:38;;;;;;;0.00;0.00;;;3.40;90.70;;;;;;4982721;28;20409;-86
2023/04/14 05:14:04;;;;;;;0.13;0.13;;;3.60;91.00;;;;;;4998888;28;20188;-86
2023/04/14 05:16:30;;;;;;;0.00;0.00;;;3.70;90.70;;;;;;4999010;28;20057;-86
2023/04/14 05:18:56;;;;;;;0.10;0.10;;;4.40;90.70;;;;;;4999012;28;20042;-86
2023/04/14 05:21:22;;;;;;;0.00;0.00;;;3.70;91.10;;;;;;4982942;28;20057;-85
2023/04/14 05:23:47;;;;;;;0.00;0.00;;;3.70;91.70;;;;;;4998262;28;20045;-85
2023/04/14 05:26:14;;;;;;;0.00;0.00;;;3.80;90.90;;;;;;4982447;28;20071;-85
2023/04/14 05:28:40;;;;;;;0.30;0.20;;;4.20;91.30;;;;;;4997806;28;20056;-85
2023/04/14 05:31:06;;;;;;;0.17;0.00;;;3.90;90.80;;;;;;4998643;28;20132;-85
2023/04/14 05:33:35;;;;;;;0.10;0.10;;;3.90;92.30;;;;;;4997836;28;20100;-85
2023/04/14 05:36:01;;;;;;;0.00;0.00;;;3.90;92.70;;;;;;4982525;28;20393;-85
2023/04/14 05:38:27;;;;;;;0.10;0.10;;;3.90;92.90;;;;;;4983025;28;20053;-85
2023/04/14 05:40:52;;;;;;;0.08;0.08;;;3.90;93.60;;;;;;4998028;28;20123;-85
2023/04/14 05:43:18;;;;;;;0.00;0.00;;;3.90;93.90;;;;;;4998139;28;20046;-86
2023/04/14 05:45:47;;;;;;;0.00;0.00;;;4.50;94.70;;;;;;4998335;28;20050;-85
2023/04/14 05:48:16;;;;;;;0.00;0.00;;;4.00;95.30;;;;;;5014161;28;20045;-85
2023/04/14 05:50:41;;;;;;;0.00;0.00;;;4.10;95.10;;;;;;4998279;28;20452;-85
2023/04/14 05:53:07;;;;;;;0.00;0.00;;;5.10;94.90;;;;;;4981884;28;20053;-85
2023/04/14 05:55:33;;;;;;;0.00;0.00;;;4.20;94.80;;;;;;5014038;28;20046;-85
2023/04/14 05:57:59;;;;;;;0.05;0.05;;;4.30;94.50;;;;;;4999129;28;20107;-85
2023/04/14 06:00:24;;;;;;;0.40;0.10;;;4.40;93.50;;;;;;4981980;28;20504;-85
2023/04/14 06:03:22;;;;;;;;;;;;;;;;;;;;;
2023/04/14 06:06:07;;;;;;;0.00;0.00;;;4.60;91.60;;;;;;5001574;28;20041;-91
2023/04/14 06:08:45;;;;;;;;;;;;;;;;;;;;;
2023/04/14 06:11:17;;;;;;;0.00;0.00;;;4.70;94.40;;;;;;5001428;28;20386;-91
2023/04/14 06:13:55;;;;;;;;;;;;;;;;;;;;;
2023/04/14 06:16:34;;;;;;;;;;;;;;;;;;;;;
2023/04/14 06:19:13;;;;;;;0.00;0.00;;;4.90;94.80;;;;;;5000505;28;20049;-92
2023/04/14 06:21:39;;;;;;;0.00;0.00;;;5.10;94.90;;;;;;4982051;28;20042;-84
2023/04/14 06:24:05;;;;;;;0.00;0.00;;;5.30;93.70;;;;;;5014075;28;20072;-85
2023/04/14 06:26:31;;;;;;;0.00;0.00;;;5.60;93.70;;;;;;4982267;28;20061;-85
2023/04/14 06:28:57;;;;;;;0.00;0.00;;;5.90;92.00;;;;;;4998485;28;20050;-85
2023/04/14 06:31:23;;;;;;;0.00;0.00;;;6.10;91.80;;;;;;4982466;28;20049;-86
2023/04/14 06:33:51;;;;;;;0.22;0.22;;;6.30;90.00;;;;;;4997222;28;20053;-85
2023/04/14 06:36:17;;;;;;;0.05;0.00;;;6.60;87.20;;;;;;5014148;28;20124;-86
2023/04/14 06:38:43;;;;;;;0.00;0.00;;;7.00;86.40;;;;;;4999055;28;20469;-85
2023/04/14 06:41:09;;;;;;;0.10;0.10;;;7.30;82.40;;;;;;4982315;28;20041;-85
2023/04/14 06:43:35;;;;;;;0.00;0.00;;;7.60;78.90;;;;;;5013762;28;20065;-84
2023/04/14 06:46:01;;;;;;;0.03;0.03;;;7.70;78.40;;;;;;4997566;28;20057;-84
2023/04/14 06:48:27;;;;;;;0.00;0.00;;;8.20;76.00;;;;;;4981127;28;20050;-84
2023/04/14 06:50:56;;;;;;;0.00;0.00;;;9.10;75.40;;;;;;4997279;28;20048;-84
2023/04/14 06:53:22;;;;;;;0.00;0.00;;;10.30;67.80;;;;;;4980982;28;20072;-85
2023/04/14 06:55:50;;;;;;;0.00;0.00;;;11.40;32.20;;;;;;5013536;28;20058;-88
2023/04/14 06:58:17;;;;;;;0.55;0.35;;;12.50;19.40;;;;;;4997964;28;20053;-85
2023/04/14 07:00:42;;;;;;;5.45;0.43;;;13.40;1.00;;;;;;5013693;28;20462;-85
2023/04/14 07:03:08;;;;;;;0.17;0.10;;;14.20;1.00;;;;;;4981267;28;20100;-84
2023/04/14 07:05:34;;;;;;;0.00;0.00;;;14.80;1.00;;;;;;4981675;28;20038;-86
2023/04/14 07:07:59;;;;;;;0.10;0.10;;;14.90;99.90;;;;;;4981724;28;20474;-85
2023/04/14 07:10:25;;;;;;;0.00;0.00;;;14.90;99.90;;;;;;5013294;28;20046;-85
2023/04/14 07:12:51;;;;;;;0.08;0.08;;;14.60;99.90;;;;;;4980813;28;20054;-85
2023/04/14 07:15:16;;;;;;;0.00;0.00;;;14.60;99.90;;;;;;4980546;28;20077;-85
2023/04/14 07:17:42;;;;;;;0.00;0.00;;;14.90;99.90;;;;;;4997307;28;20045;-85
2023/04/14 07:20:09;;;;;;;0.00;0.00;;;15.60;55.10;;;;;;4996902;28;20049;-85
2023/04/14 07:22:34;;;;;;;0.00;0.00;;;16.10;1.00;;;;;;4996812;28;20060;-85
2023/04/14 07:25:00;;;;;;;0.00;0.00;;;16.80;99.90;;;;;;4996816;28;20050;-85
2023/04/14 07:27:27;;;;;;;0.00;0.00;;;17.30;99.90;;;;;;4981384;28;20092;-85
2023/04/14 07:29:53;;;;;;;0.00;0.00;;;17.90;1.00;;;;;;4996789;28;20111;-86
2023/04/14 07:32:19;;;;;;;0.00;0.00;;;18.20;99.90;;;;;;4980440;28;20042;-85
2023/04/14 07:34:45;;;;;;;0.00;0.00;;;18.20;1.00;;;;;;4996715;28;20072;-86
2023/04/14 07:37:10;;;;;;;0.22;0.03;;;18.30;99.90;;;;;;4980635;28;20038;-85
2023/04/14 07:39:37;;;;;;;0.00;0.00;;;18.60;99.90;;;;;;4996887;28;20053;-85
2023/04/14 07:42:03;;;;;;;0.00;0.00;;;18.50;99.90;;;;;;4996601;28;20085;-84
2023/04/14 07:44:28;;;;;;;0.00;0.00;;;18.30;99.90;;;;;;4999932;28;20107;-85
2023/04/14 07:46:54;;;;;;;0.00;0.00;;;18.20;1.00;;;;;;4996644;28;20050;-86
2023/04/14 07:49:20;;;;;;;0.00;0.00;;;17.90;99.90;;;;;;4996617;28;20053;-85
2023/04/14 07:51:45;;;;;;;0.00;0.00;;;17.50;99.90;;;;;;4996001;28;20046;-85
2023/04/14 07:54:11;;;;;;;0.00;0.00;;;17.40;1.00;;;;;;4997269;28;20038;-85
2023/04/14 07:56:37;;;;;;;0.10;0.10;;;17.00;11.00;;;;;;4996931;28;20042;-85
2023/04/14 07:59:03;;;;;;;0.00;0.00;;;16.40;70.40;;;;;;4996501;28;20141;-86
2023/04/14 08:01:28;;;;;;;0.08;0.08;;;16.10;95.50;;;;;;5013105;28;20504;-85
2023/04/14 08:03:54;;;;;;;0.15;0.15;;;15.60;99.90;;;;;;4996461;28;20478;-85
2023/04/14 08:06:20;;;;;;;0.13;0.13;;;15.40;1.00;;;;;;5000924;28;20528;-85
2023/04/14 08:08:46;;;;;;;4.75;1.00;;;14.90;90.90;;;;;;5000287;28;20383;-86
2023/04/14 08:11:12;;;;;;;0.00;0.00;;;14.80;84.70;;;;;;4999901;28;20486;-85
2023/04/14 08:13:40;;;;;;;0.10;0.10;;;14.50;1.00;;;;;;5016709;28;20053;-86
2023/04/14 08:16:06;;;;;;;0.32;0.32;;;14.30;80.00;;;;;;5000138;28;20092;-85
2023/04/14 08:18:31;;;;;;;0.00;0.00;;;14.30;1.00;;;;;;4999839;28;20147;-85
2023/04/14 08:20:57;;;;;;;0.52;0.25;;;14.30;99.90;;;;;;4983945;28;20088;-85
2023/04/14 08:23:23;;;;;;;1.17;0.10;;;14.20;1.00;;;;;;4983853;28;20056;-85
2023/04/14 08:25:49;;;;;;;0.00;0.00;;;14.00;1.00;;;;;;4983761;28;20139;-85
2023/04/14 08:28:14;;;;;;;1.40;0.50;;;13.90;99.90;;;;;;4983751;28;20402;-85
2023/04/14 08:30:40;;;;;;;0.00;0.00;;;13.70;99.90;;;;;;5000725;28;20465;-85
2023/04/14 08:33:06;;;;;;;0.20;0.00;;;13.60;99.90;;;;;;4999706;28;20401;-85
2023/04/14 08:35:31;;;;;;;0.00;0.00;;;13.70;1.00;;;;;;4999521;28;20128;-85
2023/04/14 08:37:59;;;;;;;0.00;0.00;;;13.70;1.00;;;;;;4999734;28;20041;-85
2023/04/14 08:40:34;;;;;;;0.00;0.00;;;13.80;4.80;;;;;;4983575;28;20086;-85
2023/04/14 08:43:00;;;;;;;0.35;0.08;;;13.70;99.90;;;;;;4999952;28;20077;-85
2023/04/14 08:45:27;;;;;;;0.00;0.00;;;13.70;24.00;;;;;;5015962;28;20092;-85
2023/04/14 08:47:55;;;;;;;0.00;0.00;;;13.90;1.00;;;;;;4984134;28;20050;-85
2023/04/14 08:50:25;;;;;;;0.73;0.32;;;14.10;99.90;;;;;;5016104;28;20046;-84
2023/04/14 08:52:55;;;;;;;0.20;0.15;;;14.30;99.90;;;;;;5015713;28;20393;-84
2023/04/14 08:55:23;;;;;;;0.00;0.00;;;14.30;59.80;;;;;;4999945;28;20133;-84
2023/04/14 08:57:49;;;;;;;0.00;0.00;;;14.30;1.00;;;;;;5015610;28;20065;-84
2023/04/14 09:00:17;;;;;;;0.00;0.00;;;14.40;1.00;;;;;;4983092;28;20046;-85
2023/04/14 09:02:44;;;;;;;0.00;0.00;;;14.60;99.90;;;;;;5015498;28;20132;-85
2023/04/14 09:05:11;;;;;;;0.00;0.00;;;14.70;99.90;;;;;;4982924;28;20115;-85
2023/04/14 09:07:37;;;;;;;0.00;0.00;;;14.70;99.90;;;;;;4999161;28;20057;-85
2023/04/14 09:10:12;;;;;;;0.22;0.22;;;14.70;1.00;;;;;;4982748;28;20060;-84
2023/04/14 09:12:39;;;;;;;0.00;0.00;;;14.80;99.90;;;;;;5014954;28;20060;-85
2023/04/14 09:15:06;;;;;;;0.00;0.00;;;14.90;99.90;;;;;;5015912;28;20050;-85
2023/04/14 09:17:32;;;;;;;0.10;0.10;;;15.10;63.80;;;;;;5014251;28;20050;-85
2023/04/14 09:19:58;;;;;;;0.20;0.20;;;15.40;99.90;;;;;;4998902;28;20065;-85
2023/04/14 09:22:26;;;;;;;0.00;0.00;;;15.40;99.90;;;;;;4982997;28;20053;-85
2023/04/14 09:24:52;;;;;;;0.00;0.00;;;15.50;97.80;;;;;;4998391;28;20087;-85
2023/04/14 09:27:17;;;;;;;0.00;0.00;;;15.50;99.90;;;;;;4998679;28;20136;-85
2023/04/14 09:29:43;;;;;;;0.00;0.00;;;15.70;99.90;;;;;;4999665;28;20049;-85
2023/04/14 09:32:11;;;;;;;0.00;0.00;;;15.70;99.90;;;;;;4982472;28;20462;-85
2023/04/14 09:34:53;;;;;;;0.00;0.00;;;16.10;99.90;;;;;;5014519;28;20137;-85
2023/04/14 09:37:19;;;;;;;0.00;0.00;;;16.20;1.00;;;;;;4998879;28;20085;-85
2023/04/14 09:39:54;;;;;;;0.00;0.00;;;16.20;1.00;;;;;;4998853;28;20077;-85
2023/04/14 09:42:39;;;;;;;0.00;0.00;;;16.20;99.90;;;;;;4998771;28;20046;-85
2023/04/14 09:45:05;;;;;;;0.00;0.00;;;16.30;99.90;;;;;;4998306;28;20042;-85
2023/04/14 09:47:31;;;;;;;0.95;0.90;;;16.20;99.90;;;;;;4998478;28;20053;-85
2023/04/14 09:50:02;;;;;;;0.20;0.20;;;16.30;56.40;;;;;;4982257;28;20137;-85
2023/04/14 09:52:43;;;;;;;0.15;0.15;;;16.30;99.90;;;;;;4998389;28;20108;-85
2023/04/14 09:55:14;;;;;;;0.00;0.00;;;16.50;99.90;;;;;;5014375;28;20042;-85
2023/04/14 09:57:46;;;;;;;26.88;1.25;;;16.50;99.90;;;;;;4998877;28;20045;-85
2023/04/14 10:00:14;;;;;;;0.20;0.20;;;16.60;99.90;;;;;;5014495;28;20148;-85
2023/04/14 10:03:00;;;;;;;0.60;0.32;;;16.70;1.00;;;;;;5014425;28;20038;-84
2023/04/14 10:05:30;;;;;;;0.00;0.00;;;16.50;99.90;;;;;;4998981;28;20065;-85
2023/04/14 10:08:04;;;;;;;0.00;0.00;;;16.60;62.00;;;;;;4981735;28;20151;-85
2023/04/14 10:10:30;;;;;;;0.22;0.08;;;16.80;99.90;;;;;;4998034;28;20104;-85
2023/04/14 10:12:58;;;;;;;0.63;0.55;;;16.70;99.90;;;;;;4998736;28;20050;-85
2023/04/14 10:15:24;;;;;;;0.00;0.00;;;16.60;99.90;;;;;;4998021;28;20050;-85
2023/04/14 10:17:50;;;;;;;0.00;0.00;;;16.70;99.90;;;;;;4998186;28;20465;-85
2023/04/14 10:20:16;;;;;;;0.05;0.00;;;17.00;99.90;;;;;;5014146;28;20048;-85
2023/04/14 10:22:42;;;;;;;0.00;0.00;;;17.20;99.90;;;;;;5014434;28;20065;-85
2023/04/14 10:25:09;;;;;;;0.05;0.05;;;17.30;99.90;;;;;;4998582;28;20081;-85
2023/04/14 10:27:36;;;;;;;1.88;0.55;;;17.30;99.90;;;;;;4981968;28;20048;-85
2023/04/14 10:30:03;;;;;;;0.00;0.00;;;16.80;1.00;;;;;;4981179;28;20046;-85
2023/04/14 10:32:34;;;;;;;0.00;0.00;;;16.80;1.00;;;;;;4997282;28;20053;-85
2023/04/14 10:35:04;;;;;;;0.45;0.10;;;16.70;1.00;;;;;;4997376;28;20061;-85
2023/04/14 10:37:33;;;;;;;0.35;0.25;;;16.50;1.00;;;;;;4997683;28;20046;-85
2023/04/14 10:40:05;;;;;;;0.00;0.00;;;16.80;99.90;;;;;;4997938;28;20045;-84
2023/04/14 10:43:01;;;;;;;0.00;0.00;;;16.60;1.00;;;;;;4998333;28;20095;-85
2023/04/14 10:45:26;;;;;;;0.00;0.00;;;16.50;1.00;;;;;;4985063;28;20065;-85
2023/04/14 10:47:54;;;;;;;0.00;0.00;;;16.60;1.00;;;;;;4997634;28;20049;-86
2023/04/14 10:50:23;;;;;;;0.00;0.00;;;16.70;1.00;;;;;;5013605;28;20136;-86
2023/04/14 10:52:55;;;;;;;0.00;0.00;;;16.90;1.00;;;;;;4997042;28;20099;-85
2023/04/14 10:55:25;;;;;;;0.00;0.00;;;17.10;1.00;;;;;;4980634;28;20136;-86
2023/04/14 10:57:53;;;;;;;0.00;0.00;;;17.20;99.90;;;;;;4996675;28;20081;-86
2023/04/14 11:00:18;;;;;;;0.30;0.28;;;17.40;99.90;;;;;;4996971;28;20549;-86
2023/04/14 11:03:02;;;;;;;0.00;0.00;;;17.40;99.90;;;;;;4996989;28;20155;-86
2023/04/14 11:05:27;;;;;;;0.43;0.13;;;17.80;1.00;;;;;;4997152;28;20058;-84
2023/04/14 11:07:55;;;;;;;0.13;0.13;;;17.90;99.90;;;;;;4996852;28;20060;-85
2023/04/14 11:10:21;;;;;;;0.65;0.65;;;17.90;99.90;;;;;;4980543;28;20042;-85
2023/04/14 11:13:01;;;;;;;0.47;0.22;;;17.90;99.90;;;;;;4997122;28;20359;-86
2023/04/14 11:15:47;;;;;;;0.00;0.00;;;17.80;99.90;;;;;;4996253;28;20054;-85
2023/04/14 11:18:19;;;;;;;1.13;0.30;;;17.80;99.90;;;;;;4996766;28;20057;-85
2023/04/14 11:20:45;;;;;;;0.00;0.00;;;17.80;99.90;;;;;;5013352;28;20049;-85
2023/04/14 11:23:15;;;;;;;0.20;0.20;;;18.00;99.90;;;;;;4996669;28;20055;-85
2023/04/14 11:25:41;;;;;;;0.25;0.25;;;17.60;76.90;;;;;;5013018;28;20072;-85
2023/04/14 11:28:07;;;;;;;0.38;0.08;;;17.40;98.60;;;;;;4996703;28;20394;-86
2023/04/14 11:30:33;;;;;;;0.00;0.00;;;17.10;79.40;;;;;;4981272;28;20048;-85
2023/04/14 11:32:59;;;;;;;0.13;0.13;;;17.00;69.10;;;;;;4996616;28;20061;-86
2023/04/14 11:35:30;;;;;;;0.00;0.00;;;17.10;89.50;;;;;;5012444;28;20053;-86
2023/04/14 11:37:58;;;;;;;0.00;0.00;;;17.00;77.50;;;;;;4996646;28;20046;-86
2023/04/14 11:40:25;;;;;;;0.00;0.00;;;16.90;86.20;;;;;;4996814;28;20054;-86
2023/04/14 11:42:53;;;;;;;0.40;0.20;;;17.50;99.90;;;;;;4996498;28;20050;-86
2023/04/14 11:45:19;;;;;;;0.00;0.00;;;17.70;99.90;;;;;;4996824;28;20145;-85
2023/04/14 11:48:04;;;;;;;0.00;0.00;;;17.40;25.10;;;;;;4997243;28;20050;-85
2023/04/14 11:50:32;;;;;;;0.00;0.00;;;17.20;22.60;;;;;;4996719;28;20085;-85
2023/04/14 11:52:59;;;;;;;0.80;0.30;;;17.30;64.90;;;;;;4996455;28;20088;-85
2023/04/14 11:55:26;;;;;;;0.00;0.00;;;17.00;30.70;;;;;;4996139;28;20044;-84
2023/04/14 11:57:53;;;;;;;0.10;0.10;;;16.80;65.00;;;;;;4997132;28;20092;-85
2023/04/14 12:00:19;;;;;;;0.00;0.00;;;16.90;59.40;;;;;;4981048;28;20049;-84
2023/04/14 12:02:45;;;;;;;0.22;0.22;;;17.40;99.90;;;;;;5012990;28;20371;-84
2023/04/14 12:05:12;;;;;;;0.20;0.10;;;17.90;68.30;;;;;;5012435;28;20482;-85
2023/04/14 12:07:41;;;;;;;1.00;0.70;;;17.70;1.00;;;;;;4996429;28;20096;-85
2023/04/14 12:10:07;;;;;;;0.00;0.00;;;17.60;1.00;;;;;;4996380;28;20100;-85
2023/04/14 12:12:33;;;;;;;1.05;0.55;;;17.50;1.00;;;;;;4996300;28;20046;-85
2023/04/14 12:15:02;;;;;;;0.00;0.00;;;17.20;1.00;;;;;;4979869;28;20481;-85
2023/04/14 12:17:28;;;;;;;5.28;0.45;;;17.00;1.00;;;;;;5012596;28;20050;-85
2023/04/14 12:19:54;;;;;;;1.10;0.55;;;17.10;40.30;;;;;;5013328;28;20056;-84
2023/04/14 12:22:27;;;;;;;0.45;0.00;;;17.00;1.00;;;;;;4980294;28;20083;-85
2023/04/14 12:24:55;;;;;;;2.60;0.38;;;16.80;1.00;;;;;;4996419;28;20048;-85
2023/04/14 12:27:23;;;;;;;0.08;0.08;;;17.00;1.00;;;;;;4995801;28;20057;-85
2023/04/14 12:29:49;;;;;;;2.20;0.52;;;17.20;1.00;;;;;;4996049;28;20112;-85
2023/04/14 12:32:15;;;;;;;0.00;0.00;;;17.50;1.00;;;;;;4980032;28;20046;-86
2023/04/14 12:34:54;;;;;;;0.00;0.00;;;17.80;1.00;;;;;;4995559;28;20054;-84
2023/04/14 12:37:27;;;;;;;0.28;0.28;;;18.00;1.00;;;;;;4996088;28;20042;-85
2023/04/14 12:40:00;;;;;;;0.00;0.00;;;18.40;1.00;;;;;;4995818;28;20045;-85
2023/04/14 12:42:27;;;;;;;0.10;0.00;;;18.70;1.00;;;;;;5012305;28;20053;-85
2023/04/14 12:45:01;;;;;;;0.00;0.00;;;18.80;1.00;;;;;;5012302;28;20050;-85
2023/04/14 12:47:30;;;;;;;0.25;0.05;;;18.80;1.00;;;;;;4995956;28;20046;-84
2023/04/14 12:49:57;;;;;;;0.00;0.00;;;18.90;1.00;;;;;;5012490;28;20100;-84
2023/04/14 12:52:37;;;;;;;0.20;0.17;;;18.60;1.00;;;;;;4999370;28;20100;-84
2023/04/14 12:55:04;;;;;;;0.00;0.00;;;18.60;1.00;;;;;;4999503;28;20046;-87
2023/04/14 12:57:31;;;;;;;1.27;0.40;;;18.50;1.00;;;;;;4999234;28;20065;-87
2023/04/14 12:59:59;;;;;;;0.10;0.00;;;18.60;1.00;;;;;;4999033;28;20050;-84
2023/04/14 13:02:28;;;;;;;0.00;0.00;;;18.80;1.00;;;;;;4999261;28;20049;-84
2023/04/14 13:04:55;;;;;;;0.30;0.30;;;19.00;1.00;;;;;;4999174;28;20045;-85